Time;durP1;ratioP1;P1;durP2;ratioP2;P2;SDS_P1;SDS_P2;PMS_P1;PMS_P2;Temp;Humidity;BMP_temperature;BMP_pressure;BME280_temperature;BME280_humidity;BME280_pressure;Samples;Min_cycle;Max_cycle;Signal;HPM_P1;HPM_P2
2024/05/05 00:00:50;;;;;;;;;;;9.50;99.90;;;;;;4995024;28;19940;-83
2024/05/05 00:03:16;;;;;;;;;;;9.50;99.90;;;;;;5012151;28;19914;-83
2024/05/05 00:05:42;;;;;;;;;;;9.50;99.90;;;;;;5010612;28;19975;-82
2024/05/05 00:08:07;;;;;;;;;;;9.50;99.90;;;;;;4995883;28;20418;-83
2024/05/05 00:10:33;;;;;;;;;;;9.50;99.90;;;;;;5016019;28;19972;-83
2024/05/05 00:12:58;;;;;;;;;;;9.40;99.90;;;;;;4991511;28;19913;-83
2024/05/05 00:15:24;;;;;;;;;;;9.30;99.90;;;;;;5009977;28;19925;-83
2024/05/05 00:17:49;;;;;;;;;;;9.20;99.90;;;;;;4998525;28;20431;-84
2024/05/05 00:20:15;;;;;;;;;;;9.10;99.90;;;;;;5003873;28;19921;-83
2024/05/05 00:22:41;;;;;;;;;;;9.00;99.90;;;;;;4999166;28;19920;-83
2024/05/05 00:25:06;;;;;;;;;;;9.00;99.90;;;;;;5006222;28;19994;-81
2024/05/05 00:27:32;;;;;;;;;;;8.90;99.90;;;;;;4993016;28;19921;-82
2024/05/05 00:29:57;;;;;;;;;;;8.80;99.90;;;;;;5006054;28;19938;-82
2024/05/05 00:32:23;;;;;;;;;;;8.80;99.90;;;;;;4995485;28;20480;-82
2024/05/05 00:34:48;;;;;;;;;;;8.70;99.90;;;;;;5010573;28;19921;-82
2024/05/05 00:37:14;;;;;;;;;;;8.70;99.90;;;;;;5004761;28;21056;-84
2024/05/05 00:39:40;;;;;;;;;;;8.60;99.90;;;;;;5004919;28;19929;-84
2024/05/05 00:42:05;;;;;;;;;;;8.60;99.90;;;;;;5002338;28;20020;-83
2024/05/05 00:44:31;;;;;;;;;;;8.60;99.90;;;;;;5002537;28;19925;-84
2024/05/05 00:46:56;;;;;;;;;;;8.50;99.90;;;;;;5003934;28;19957;-84
2024/05/05 00:49:22;;;;;;;;;;;8.40;99.90;;;;;;5009415;28;19928;-83
2024/05/05 00:51:48;;;;;;;;;;;8.40;99.90;;;;;;5010552;28;19929;-83
2024/05/05 00:54:13;;;;;;;;;;;8.50;99.90;;;;;;4995162;28;19947;-83
2024/05/05 00:56:40;;;;;;;;;;;8.50;99.90;;;;;;5008413;28;19921;-82
2024/05/05 00:59:05;;;;;;;;;;;8.50;99.90;;;;;;4991761;28;20022;-82
2024/05/05 01:01:31;;;;;;;;;;;8.40;99.90;;;;;;5004605;28;20004;-84
2024/05/05 01:03:56;;;;;;;;;;;8.30;99.90;;;;;;4994404;28;19921;-83
2024/05/05 01:06:22;;;;;;;;;;;8.20;99.90;;;;;;5006822;28;19951;-84
2024/05/05 01:08:48;;;;;;;;;;;8.20;99.90;;;;;;4994331;28;19975;-83
2024/05/05 01:11:14;;;;;;;;;;;8.20;99.90;;;;;;5008803;28;19921;-83
2024/05/05 01:13:39;;;;;;;;;;;8.20;99.90;;;;;;4987196;28;19929;-83
2024/05/05 01:16:05;;;;;;;;;;;8.20;99.90;;;;;;5009137;28;20081;-84
2024/05/05 01:18:31;;;;;;;;;;;8.20;99.90;;;;;;4995722;28;19921;-83
2024/05/05 01:20:56;;;;;;;;;;;8.10;99.90;;;;;;5004610;28;19929;-83
2024/05/05 01:23:22;;;;;;;;;;;8.10;99.90;;;;;;5007785;28;19918;-82
2024/05/05 01:25:47;;;;;;;;;;;8.00;99.90;;;;;;4990648;28;20455;-82
2024/05/05 01:28:13;;;;;;;;;;;7.90;99.90;;;;;;5004408;28;19913;-83
2024/05/05 01:30:38;;;;;;;;;;;8.00;99.90;;;;;;4997267;28;19917;-83
2024/05/05 01:33:04;;;;;;;;;;;7.90;99.90;;;;;;5003976;28;19918;-82
2024/05/05 01:35:29;;;;;;;;;;;7.80;99.90;;;;;;4994741;28;21452;-82
2024/05/05 01:37:55;;;;;;;;;;;7.70;99.90;;;;;;5006110;28;19928;-83
2024/05/05 01:40:20;;;;;;;;;;;7.60;99.90;;;;;;4990819;28;19921;-83
2024/05/05 01:42:46;;;;;;;;;;;7.50;99.90;;;;;;5007317;28;20344;-83
2024/05/05 01:45:12;;;;;;;;;;;7.40;99.90;;;;;;4992615;28;19972;-81
2024/05/05 01:47:37;;;;;;;;;;;7.40;99.90;;;;;;5005189;28;20417;-83
2024/05/05 01:50:05;;;;;;;;;;;7.40;99.90;;;;;;4995891;28;19925;-81
2024/05/05 01:52:31;;;;;;;;;;;7.40;99.90;;;;;;5001763;28;20414;-83
2024/05/05 01:54:56;;;;;;;;;;;7.30;99.90;;;;;;4994397;28;20012;-82
2024/05/05 01:57:22;;;;;;;;;;;7.30;99.90;;;;;;5007860;28;19925;-82
2024/05/05 01:59:47;;;;;;;;;;;7.20;99.90;;;;;;4988595;28;19922;-82
2024/05/05 02:02:13;;;;;;;;;;;7.30;99.90;;;;;;5008115;28;19929;-83
2024/05/05 02:04:38;;;;;;;;;;;7.30;99.90;;;;;;5007298;28;19925;-83
2024/05/05 02:07:04;;;;;;;;;;;7.30;99.90;;;;;;4997299;28;19921;-83
2024/05/05 02:09:29;;;;;;;;;;;7.30;99.90;;;;;;5006031;28;19967;-83
2024/05/05 02:11:55;;;;;;;;;;;7.40;99.90;;;;;;5005825;28;20016;-82
2024/05/05 02:14:20;;;;;;;;;;;7.40;99.90;;;;;;4985093;28;19929;-83
2024/05/05 02:16:46;;;;;;;;;;;7.40;99.90;;;;;;5004813;28;19964;-82
2024/05/05 02:19:12;;;;;;;;;;;7.40;99.90;;;;;;5009775;28;19909;-83
2024/05/05 02:21:37;;;;;;;;;;;7.40;99.90;;;;;;5000010;28;19921;-81
2024/05/05 02:24:03;;;;;;;;;;;7.40;99.90;;;;;;5003554;28;20205;-83
2024/05/05 02:26:29;;;;;;;;;;;7.40;99.90;;;;;;5003608;28;19921;-82
2024/05/05 02:28:55;;;;;;;;;;;7.40;99.90;;;;;;4992076;28;20016;-82
2024/05/05 02:31:21;;;;;;;;;;;7.40;99.90;;;;;;5005371;28;19921;-83
2024/05/05 02:33:46;;;;;;;;;;;7.40;99.90;;;;;;5005476;28;20390;-83
2024/05/05 02:36:14;;;;;;;;;;;7.30;99.90;;;;;;4994863;28;20012;-83
2024/05/05 02:38:39;;;;;;;;;;;7.20;99.90;;;;;;5007847;28;20038;-82
2024/05/05 02:41:06;;;;;;;;;;;7.20;99.90;;;;;;4995252;28;20413;-83
2024/05/05 02:43:32;;;;;;;;;;;7.20;99.90;;;;;;5006080;28;20064;-82
2024/05/05 02:45:57;;;;;;;;;;;7.20;99.90;;;;;;4997455;28;19927;-83
2024/05/05 02:48:23;;;;;;;;;;;7.10;99.90;;;;;;5006443;28;19940;-84
2024/05/05 02:50:48;;;;;;;;;;;7.10;99.90;;;;;;4998110;28;20361;-83
2024/05/05 02:53:14;;;;;;;;;;;7.00;99.90;;;;;;5005621;28;20305;-83
2024/05/05 02:55:39;;;;;;;;;;;6.90;99.90;;;;;;4994695;28;20333;-83
2024/05/05 02:58:05;;;;;;;;;;;6.90;99.90;;;;;;5007165;28;19926;-83
2024/05/05 03:00:30;;;;;;;;;;;6.90;99.90;;;;;;4991918;28;19948;-83
2024/05/05 03:02:56;;;;;;;;;;;6.90;99.90;;;;;;5010485;28;20281;-83
2024/05/05 03:05:21;;;;;;;;;;;6.90;99.90;;;;;;5000723;28;19922;-82
2024/05/05 03:07:47;;;;;;;;;;;6.90;99.90;;;;;;5007474;28;19922;-83
2024/05/05 03:10:13;;;;;;;;;;;6.80;99.90;;;;;;5007400;28;19921;-82
2024/05/05 03:12:39;;;;;;;;;;;6.80;99.90;;;;;;5005487;28;19979;-82
2024/05/05 03:15:04;;;;;;;;;;;6.80;99.90;;;;;;5004722;28;20019;-82
2024/05/05 03:17:30;;;;;;;;;;;6.70;99.90;;;;;;4998723;28;19921;-82
2024/05/05 03:19:56;;;;;;;;;;;6.70;99.90;;;;;;5009247;28;19913;-82
2024/05/05 03:22:21;;;;;;;;;;;6.70;99.90;;;;;;4998539;28;19918;-82
2024/05/05 03:24:47;;;;;;;;;;;6.70;99.90;;;;;;5014353;28;20696;-83
2024/05/05 03:27:13;;;;;;;;;;;6.60;99.90;;;;;;4997577;28;20416;-82
2024/05/05 03:29:38;;;;;;;;;;;6.60;99.90;;;;;;5009005;28;19925;-82
2024/05/05 03:32:04;;;;;;;;;;;6.60;99.90;;;;;;5001471;28;19913;-83
2024/05/05 03:34:29;;;;;;;;;;;6.60;99.90;;;;;;5008620;28;20027;-83
2024/05/05 03:36:55;;;;;;;;;;;6.60;99.90;;;;;;5001769;28;19935;-82
2024/05/05 03:39:20;;;;;;;;;;;6.60;99.90;;;;;;5007688;28;20131;-82
2024/05/05 03:41:46;;;;;;;;;;;6.60;99.90;;;;;;4994548;28;19921;-83
2024/05/05 03:44:11;;;;;;;;;;;6.60;99.90;;;;;;5006492;28;20373;-82
2024/05/05 03:46:37;;;;;;;;;;;6.60;99.90;;;;;;4994854;28;20473;-82
2024/05/05 03:49:02;;;;;;;;;;;6.60;99.90;;;;;;5028172;28;19921;-82
2024/05/05 03:51:28;;;;;;;;;;;6.50;99.90;;;;;;5015164;28;19933;-82
2024/05/05 03:53:53;;;;;;;;;;;6.50;99.90;;;;;;4993449;28;19922;-82
2024/05/05 03:56:19;;;;;;;;;;;6.50;99.90;;;;;;5008615;28;19953;-83
2024/05/05 03:58:45;;;;;;;;;;;6.50;99.90;;;;;;5000963;28;19922;-82
2024/05/05 04:01:10;;;;;;;;;;;6.40;99.90;;;;;;5004509;28;19967;-83
2024/05/05 04:03:36;;;;;;;;;;;6.50;99.90;;;;;;5000891;28;19996;-83
2024/05/05 04:06:01;;;;;;;;;;;6.40;99.90;;;;;;5009595;28;19967;-82
2024/05/05 04:08:27;;;;;;;;;;;6.40;99.90;;;;;;4992546;28;19917;-81
2024/05/05 04:10:52;;;;;;;;;;;6.40;99.90;;;;;;5012525;28;19927;-82
2024/05/05 04:13:18;;;;;;;;;;;6.40;99.90;;;;;;4993630;28;20288;-82
2024/05/05 04:15:43;;;;;;;;;;;6.40;99.90;;;;;;5010000;28;19925;-83
2024/05/05 04:18:09;;;;;;;;;;;6.30;99.90;;;;;;4999003;28;19929;-82
2024/05/05 04:20:34;;;;;;;;;;;6.20;99.90;;;;;;5011166;28;20883;-83
2024/05/05 04:23:03;;;;;;;;;;;6.30;99.90;;;;;;4994213;28;20092;-82
2024/05/05 04:25:29;;;;;;;;;;;6.30;99.90;;;;;;5008046;28;19927;-82
2024/05/05 04:27:57;;;;;;;;;;;6.30;99.90;;;;;;4987650;28;20589;-82
2024/05/05 04:30:23;;;;;;;;;;;6.30;99.90;;;;;;5008158;28;19922;-82
2024/05/05 04:32:48;;;;;;;;;;;6.30;99.90;;;;;;5008329;28;20376;-83
2024/05/05 04:35:14;;;;;;;;;;;6.20;99.90;;;;;;4992329;28;19924;-82
2024/05/05 04:37:39;;;;;;;;;;;6.10;99.90;;;;;;5009975;28;19924;-83
2024/05/05 04:40:05;;;;;;;;;;;6.10;99.90;;;;;;4995599;28;19921;-83
2024/05/05 04:42:30;;;;;;;;;;;6.20;99.90;;;;;;5007382;28;19941;-82
2024/05/05 04:44:56;;;;;;;;;;;6.20;99.90;;;;;;4995151;28;19917;-83
2024/05/05 04:47:22;;;;;;;;;;;6.10;99.90;;;;;;5003970;28;20136;-81
2024/05/05 04:49:47;;;;;;;;;;;6.10;99.90;;;;;;4996229;28;20460;-83
2024/05/05 04:52:12;;;;;;;;;;;6.00;99.90;;;;;;5009752;28;21099;-82
2024/05/05 04:54:38;;;;;;;;;;;5.90;99.90;;;;;;4991736;28;20535;-82
2024/05/05 04:57:04;;;;;;;;;;;6.00;99.90;;;;;;5006327;28;19926;-82
2024/05/05 04:59:29;;;;;;;;;;;5.90;99.90;;;;;;4992683;28;19921;-82
2024/05/05 05:01:55;;;;;;;;;;;5.80;99.90;;;;;;5002412;28;19921;-83
2024/05/05 05:04:20;;;;;;;;;;;5.80;99.90;;;;;;4998504;28;20448;-82
2024/05/05 05:06:46;;;;;;;;;;;5.80;99.90;;;;;;5007759;28;19926;-83
2024/05/05 05:09:12;;;;;;;;;;;5.90;99.90;;;;;;4995312;28;19987;-83
2024/05/05 05:11:37;;;;;;;;;;;5.90;99.90;;;;;;5005520;28;19917;-83
2024/05/05 05:14:04;;;;;;;;;;;5.90;99.90;;;;;;5005108;28;21162;-83
2024/05/05 05:16:31;;;;;;;;;;;5.90;99.90;;;;;;4998421;28;20778;-82
2024/05/05 05:18:57;;;;;;;;;;;6.00;99.90;;;;;;5026297;28;19969;-83
2024/05/05 05:21:22;;;;;;;;;;;6.10;99.90;;;;;;4999421;28;20093;-82
2024/05/05 05:23:48;;;;;;;;;;;6.20;99.90;;;;;;5009909;28;20511;-82
2024/05/05 05:26:14;;;;;;;;;;;6.30;99.90;;;;;;4999099;28;20341;-82
2024/05/05 05:28:40;;;;;;;;;;;6.40;99.90;;;;;;5000089;28;19925;-83
2024/05/05 05:31:06;;;;;;;;;;;6.50;99.90;;;;;;5001333;28;20071;-83
2024/05/05 05:33:32;;;;;;;;;;;6.60;99.90;;;;;;5006253;28;20677;-83
2024/05/05 05:35:57;;;;;;;;;;;6.60;99.90;;;;;;4996451;28;20067;-82
2024/05/05 05:38:23;;;;;;;;;;;6.70;99.90;;;;;;5006649;28;19922;-82
2024/05/05 05:40:48;;;;;;;;;;;6.80;99.90;;;;;;4994306;28;19937;-82
2024/05/05 05:43:14;;;;;;;;;;;6.90;99.90;;;;;;5005747;28;19928;-82
2024/05/05 05:45:39;;;;;;;;;;;7.00;99.90;;;;;;4997142;28;20398;-82
2024/05/05 05:48:05;;;;;;;;;;;7.20;99.90;;;;;;5007354;28;19944;-82
2024/05/05 05:50:31;;;;;;;;;;;7.30;99.90;;;;;;5001315;28;19936;-82
2024/05/05 05:52:56;;;;;;;;;;;7.30;99.90;;;;;;5000894;28;19917;-82
2024/05/05 05:55:22;;;;;;;;;;;7.40;99.90;;;;;;5005586;28;19926;-83
2024/05/05 05:57:47;;;;;;;;;;;7.60;99.90;;;;;;4999002;28;19940;-82
2024/05/05 06:00:13;;;;;;;;;;;7.60;99.90;;;;;;5001832;28;19961;-83
2024/05/05 06:02:38;;;;;;;;;;;7.80;99.90;;;;;;4991295;28;19960;-82
2024/05/05 06:05:04;;;;;;;;;;;8.00;99.90;;;;;;5004097;28;20623;-82
2024/05/05 06:07:29;;;;;;;;;;;8.10;99.90;;;;;;4995038;28;19918;-81
2024/05/05 06:09:55;;;;;;;;;;;8.30;99.90;;;;;;5005525;28;19924;-83
2024/05/05 06:12:20;;;;;;;;;;;8.50;99.90;;;;;;4995036;28;20268;-83
2024/05/05 06:14:46;;;;;;;;;;;8.80;99.90;;;;;;5000680;28;20423;-82
2024/05/05 06:17:11;;;;;;;;;;;9.10;99.90;;;;;;5006209;28;20385;-81
2024/05/05 06:19:37;;;;;;;;;;;9.40;99.90;;;;;;5015045;28;19931;-83
2024/05/05 06:22:02;;;;;;;;;;;9.60;99.90;;;;;;4994019;28;19924;-83
2024/05/05 06:24:28;;;;;;;;;;;9.70;99.90;;;;;;5011924;28;19917;-83
2024/05/05 06:26:53;;;;;;;;;;;9.90;99.90;;;;;;5001314;28;19928;-83
2024/05/05 06:29:19;;;;;;;;;;;10.40;99.90;;;;;;5008754;28;19944;-83
2024/05/05 06:31:44;;;;;;;;;;;10.70;99.90;;;;;;5011995;28;20444;-84
2024/05/05 06:34:10;;;;;;;;;;;11.10;99.90;;;;;;4997382;28;19917;-83
2024/05/05 06:36:35;;;;;;;;;;;11.40;99.90;;;;;;5011491;28;19925;-83
2024/05/05 06:39:01;;;;;;;;;;;11.50;99.90;;;;;;5002230;28;20260;-84
2024/05/05 06:41:27;;;;;;;;;;;11.80;99.90;;;;;;5004445;28;20428;-83
2024/05/05 06:43:54;;;;;;;;;;;12.00;99.90;;;;;;4996874;28;20002;-83
2024/05/05 06:46:20;;;;;;;;;;;12.10;99.90;;;;;;5010582;28;19929;-84
2024/05/05 06:48:45;;;;;;;;;;;12.30;99.90;;;;;;5011441;28;19953;-82
2024/05/05 06:51:11;;;;;;;;;;;12.30;99.90;;;;;;5018257;28;19929;-83
2024/05/05 06:53:36;;;;;;;;;;;12.50;99.90;;;;;;5001660;28;19913;-83
2024/05/05 06:56:02;;;;;;;;;;;12.50;99.90;;;;;;5010932;28;19936;-83
2024/05/05 06:58:27;;;;;;;;;;;12.60;99.90;;;;;;4996663;28;19927;-84
2024/05/05 07:00:53;;;;;;;;;;;12.70;99.90;;;;;;5005584;28;20422;-83
2024/05/05 07:03:19;;;;;;;;;;;12.80;99.90;;;;;;5000078;28;19936;-84
2024/05/05 07:05:45;;;;;;;;;;;12.80;99.90;;;;;;5016157;28;19936;-84
2024/05/05 07:08:10;;;;;;;;;;;12.80;99.90;;;;;;4984775;28;19925;-83
2024/05/05 07:10:36;;;;;;;;;;;12.90;99.90;;;;;;5008765;28;19936;-84
2024/05/05 07:13:02;;;;;;;;;;;13.00;99.90;;;;;;5010378;28;20419;-84
2024/05/05 07:15:29;;;;;;;;;;;13.20;99.90;;;;;;4992152;28;20417;-83
2024/05/05 07:17:55;;;;;;;;;;;13.30;99.90;;;;;;5003359;28;20335;-82
2024/05/05 07:20:21;;;;;;;;;;;13.40;99.90;;;;;;4995643;28;20366;-83
2024/05/05 07:22:46;;;;;;;;;;;13.30;99.90;;;;;;5004940;28;20052;-83
2024/05/05 07:25:15;;;;;;;;;;;13.40;99.90;;;;;;4996319;28;19922;-84
2024/05/05 07:27:40;;;;;;;;;;;13.40;99.90;;;;;;5007935;28;19944;-84
2024/05/05 07:30:06;;;;;;;;;;;13.30;99.90;;;;;;4997669;28;20363;-84
2024/05/05 07:32:32;;;;;;;;;;;13.40;99.90;;;;;;5010134;28;20360;-83
2024/05/05 07:34:57;;;;;;;;;;;13.40;99.90;;;;;;4993117;28;20317;-83
2024/05/05 07:37:26;;;;;;;;;;;13.50;99.90;;;;;;5011116;28;19960;-84
2024/05/05 07:39:51;;;;;;;;;;;13.50;99.90;;;;;;4999377;28;20400;-83
2024/05/05 07:42:17;;;;;;;;;;;13.60;99.90;;;;;;5005730;28;19918;-84
2024/05/05 07:44:43;;;;;;;;;;;13.60;99.90;;;;;;5000696;28;19921;-83
2024/05/05 07:47:09;;;;;;;;;;;13.60;99.90;;;;;;5007493;28;20389;-84
2024/05/05 07:49:34;;;;;;;;;;;13.60;99.90;;;;;;5002388;28;20455;-84
2024/05/05 07:52:00;;;;;;;;;;;13.80;99.90;;;;;;5010115;28;20020;-83
2024/05/05 07:54:29;;;;;;;;;;;13.90;99.90;;;;;;5006827;28;19936;-84
2024/05/05 07:56:54;;;;;;;;;;;13.90;99.90;;;;;;4996135;28;19928;-84
2024/05/05 07:59:20;;;;;;;;;;;13.90;99.90;;;;;;5007349;28;20557;-84
2024/05/05 08:01:48;;;;;;;;;;;13.80;99.90;;;;;;4994426;28;19961;-83
2024/05/05 08:04:14;;;;;;;;;;;14.00;99.90;;;;;;5010835;28;19928;-83
2024/05/05 08:06:43;;;;;;;;;;;13.90;99.90;;;;;;4997550;28;20020;-84
2024/05/05 08:09:09;;;;;;;;;;;14.00;99.90;;;;;;5009149;28;20395;-84
2024/05/05 08:11:34;;;;;;;;;;;14.30;99.90;;;;;;4998521;28;20047;-83
2024/05/05 08:14:02;;;;;;;;;;;14.70;99.90;;;;;;5004446;28;19925;-84
2024/05/05 08:16:28;;;;;;;;;;;14.70;99.90;;;;;;4999813;28;20313;-84
2024/05/05 08:18:54;;;;;;;;;;;14.50;99.90;;;;;;5018205;28;19988;-83
2024/05/05 08:21:19;;;;;;;;;;;14.60;99.90;;;;;;5007730;28;19921;-83
2024/05/05 08:23:45;;;;;;;;;;;14.70;99.90;;;;;;5011791;28;19922;-83
2024/05/05 08:26:11;;;;;;;;;;;14.40;99.90;;;;;;4997220;28;20572;-84
2024/05/05 08:28:36;;;;;;;;;;;14.30;99.90;;;;;;5002841;28;19921;-84
2024/05/05 08:31:04;;;;;;;;;;;14.30;99.90;;;;;;5001556;28;19921;-84
2024/05/05 08:33:29;;;;;;;;;;;14.60;99.90;;;;;;5010127;28;19964;-84
2024/05/05 08:35:55;;;;;;;;;;;14.90;99.90;;;;;;5004180;28;20008;-84
2024/05/05 08:38:20;;;;;;;;;;;15.00;99.90;;;;;;4998552;28;19976;-84
2024/05/05 08:40:46;;;;;;;;;;;15.00;99.90;;;;;;5008129;28;20378;-84
2024/05/05 08:43:15;;;;;;;;;;;14.80;99.90;;;;;;4994012;28;19917;-83
2024/05/05 08:45:43;;;;;;;;;;;14.70;99.90;;;;;;5005869;28;19924;-84
2024/05/05 08:48:10;;;;;;;;;;;14.70;99.90;;;;;;4995053;28;20271;-85
2024/05/05 08:50:37;;;;;;;;;;;14.60;99.90;;;;;;5009222;28;19932;-83
2024/05/05 08:53:03;;;;;;;;;;;14.60;99.90;;;;;;4996245;28;19926;-84
2024/05/05 08:55:29;;;;;;;;;;;14.80;99.90;;;;;;5005947;28;19987;-84
2024/05/05 08:57:55;;;;;;;;;;;14.90;99.90;;;;;;4997798;28;19997;-84
2024/05/05 09:00:21;;;;;;;;;;;14.90;99.90;;;;;;5006504;28;19920;-84
2024/05/05 09:02:47;;;;;;;;;;;15.00;99.90;;;;;;4996716;28;19923;-84
2024/05/05 09:05:33;;;;;;;;;;;15.20;99.90;;;;;;5016053;28;20474;-84
2024/05/05 09:07:59;;;;;;;;;;;15.30;99.90;;;;;;4993137;28;19921;-84
2024/05/05 09:10:25;;;;;;;;;;;15.00;99.90;;;;;;5006237;28;19924;-85
2024/05/05 09:12:51;;;;;;;;;;;15.20;99.90;;;;;;4997554;28;20360;-84
2024/05/05 09:15:19;;;;;;;;;;;15.20;99.90;;;;;;4998233;28;20146;-84
2024/05/05 09:17:45;;;;;;;;;;;15.20;99.90;;;;;;4997694;28;20471;-84
2024/05/05 09:20:16;;;;;;;;;;;15.00;99.90;;;;;;5005791;28;20389;-84
2024/05/05 09:22:41;;;;;;;;;;;15.10;99.90;;;;;;4993479;28;19928;-84
2024/05/05 09:25:07;;;;;;;;;;;15.00;99.90;;;;;;5006835;28;19921;-84
2024/05/05 09:27:32;;;;;;;;;;;15.40;99.90;;;;;;5006831;28;20004;-84
2024/05/05 09:30:01;;;;;;;;;;;15.50;99.90;;;;;;4995461;28;19918;-83
2024/05/05 09:32:27;;;;;;;;;;;15.50;99.90;;;;;;5012262;28;19921;-84
2024/05/05 09:34:54;;;;;;;;;;;15.60;99.90;;;;;;4995129;28;19972;-84
2024/05/05 09:37:21;;;;;;;;;;;15.60;99.90;;;;;;5006886;28;19933;-83
2024/05/05 09:39:47;;;;;;;;;;;15.70;99.90;;;;;;4999804;28;19925;-83
2024/05/05 09:42:13;;;;;;;;;;;15.60;99.90;;;;;;4999568;28;19921;-84
2024/05/05 09:44:38;;;;;;;;;;;15.60;99.90;;;;;;4994341;28;21093;-83
2024/05/05 09:47:07;;;;;;;;;;;16.00;99.90;;;;;;5005786;28;20104;-84
2024/05/05 09:49:33;;;;;;;;;;;16.10;99.90;;;;;;4999218;28;20771;-83
2024/05/05 09:52:03;;;;;;;;;;;16.10;99.90;;;;;;5024111;28;19956;-84
2024/05/05 09:54:35;;;;;;;;;;;16.30;99.90;;;;;;4995474;28;19936;-85
2024/05/05 09:57:07;;;;;;;;;;;16.30;99.90;;;;;;5009978;28;19949;-85
2024/05/05 09:59:34;;;;;;;;;;;16.40;99.90;;;;;;4994526;28;19925;-84
2024/05/05 10:02:05;;;;;;;;;;;16.40;99.90;;;;;;5005682;28;19970;-86
2024/05/05 10:04:31;;;;;;;;;;;16.40;99.90;;;;;;5016199;28;19980;-82
2024/05/05 10:06:57;;;;;;;;;;;16.30;99.90;;;;;;5027544;28;20284;-83
2024/05/05 10:09:28;;;;;;;;;;;16.20;99.90;;;;;;5015768;28;19949;-83
2024/05/05 10:12:02;;;;;;;;;;;16.30;99.90;;;;;;5036373;28;19913;-85
2024/05/05 10:14:30;;;;;;;;;;;16.30;99.90;;;;;;5018352;28;19936;-84
2024/05/05 10:16:56;;;;;;;;;;;16.20;99.90;;;;;;5032392;28;19905;-85
2024/05/05 10:19:22;;;;;;;;;;;16.00;99.90;;;;;;5031026;28;19944;-84
2024/05/05 10:21:48;;;;;;;;;;;16.00;99.90;;;;;;5027643;28;19922;-83
2024/05/05 10:24:13;;;;;;;;;;;15.80;99.90;;;;;;5033305;28;19913;-84
2024/05/05 10:26:44;;;;;;;;;;;16.30;99.90;;;;;;5026038;28;19909;-84
2024/05/05 10:29:20;;;;;;;;;;;16.30;99.90;;;;;;5032181;28;19945;-84
2024/05/05 10:31:47;;;;;;;;;;;16.40;99.90;;;;;;5026501;28;19914;-83
2024/05/05 10:34:13;;;;;;;;;;;16.70;99.90;;;;;;5034352;28;19914;-84
2024/05/05 10:36:38;;;;;;;;;;;16.80;99.90;;;;;;5024456;28;19941;-84
2024/05/05 10:39:04;;;;;;;;;;;17.10;99.90;;;;;;5035979;28;19905;-84
2024/05/05 10:41:30;;;;;;;;;;;16.90;99.90;;;;;;5019984;28;20028;-84
2024/05/05 10:43:55;;;;;;;;;;;16.60;99.90;;;;;;5033896;28;20170;-84
2024/05/05 10:46:21;;;;;;;;;;;16.30;99.90;;;;;;4993305;28;19925;-85
2024/05/05 10:48:47;;;;;;;;;;;16.00;99.90;;;;;;5003465;28;19936;-85
2024/05/05 10:51:19;;;;;;;;;;;16.30;99.90;;;;;;4995289;28;20024;-84
2024/05/05 10:53:45;;;;;;;;;;;15.90;99.90;;;;;;5000001;28;19921;-84
2024/05/05 10:56:12;;;;;;;;;;;15.70;99.90;;;;;;4989243;28;19925;-84
2024/05/05 10:58:37;;;;;;;;;;;15.50;99.90;;;;;;5002179;28;20433;-84
2024/05/05 11:01:03;;;;;;;;;;;15.40;99.90;;;;;;4989971;28;19921;-84
2024/05/05 11:03:29;;;;;;;;;;;15.30;99.90;;;;;;5005229;28;20438;-84
2024/05/05 11:05:54;;;;;;;;;;;15.50;99.90;;;;;;5006722;28;19918;-84
2024/05/05 11:08:20;;;;;;;;;;;15.40;99.90;;;;;;4998839;28;19914;-84
2024/05/05 11:10:51;;;;;;;;;;;15.10;99.90;;;;;;5004738;28;19960;-84
2024/05/05 11:13:18;;;;;;;;;;;15.20;99.90;;;;;;4997456;28;19928;-83
2024/05/05 11:15:46;;;;;;;;;;;15.30;99.90;;;;;;5004200;28;19948;-84
2024/05/05 11:18:12;;;;;;;;;;;15.70;99.90;;;;;;5004747;28;19924;-83
2024/05/05 11:20:39;;;;;;;;;;;16.00;99.90;;;;;;5010797;28;20273;-83
2024/05/05 11:23:06;;;;;;;;;;;16.00;99.90;;;;;;4991829;28;19921;-83
2024/05/05 11:25:31;;;;;;;;;;;15.50;99.90;;;;;;5002836;28;19921;-84
2024/05/05 11:27:57;;;;;;;;;;;15.20;99.90;;;;;;4988690;28;20010;-84
2024/05/05 11:30:42;;;;;;;;;;;15.00;99.90;;;;;;5009474;28;19929;-84
2024/05/05 11:33:10;;;;;;;;;;;14.60;99.90;;;;;;4995037;28;20370;-84
2024/05/05 11:35:36;;;;;;;;;;;14.50;99.90;;;;;;5007248;28;19925;-83
2024/05/05 11:38:02;;;;;;;;;;;14.20;99.90;;;;;;4999251;28;20420;-84
2024/05/05 11:40:36;;;;;;;;;;;14.10;99.90;;;;;;5007464;28;19976;-84
2024/05/05 11:43:02;;;;;;;;;;;13.80;99.90;;;;;;4993001;28;19936;-84
2024/05/05 11:45:28;;;;;;;;;;;13.80;99.90;;;;;;5004429;28;19960;-84
2024/05/05 11:48:14;;;;;;;;;;;13.60;99.90;;;;;;4998614;28;20079;-84
2024/05/05 11:50:59;;;;;;;;;;;13.70;99.90;;;;;;5010556;28;20389;-84
2024/05/05 11:53:27;;;;;;;;;;;13.50;99.90;;;;;;4997092;28;19918;-84
2024/05/05 11:56:08;;;;;;;;;;;13.40;99.90;;;;;;5001203;28;20010;-84
2024/05/05 11:58:34;;;;;;;;;;;13.50;99.90;;;;;;4994044;28;20597;-83
2024/05/05 12:01:19;;;;;;;;;;;13.60;99.90;;;;;;5006528;28;20000;-84
2024/05/05 12:03:44;;;;;;;;;;;13.60;99.90;;;;;;4998415;28;19921;-84
2024/05/05 12:06:10;;;;;;;;;;;13.60;99.90;;;;;;5010624;28;19928;-83
2024/05/05 12:08:41;;;;;;;;;;;13.70;99.90;;;;;;4990225;28;19925;-83
2024/05/05 12:11:07;;;;;;;;;;;13.70;99.90;;;;;;5007096;28;19953;-83
2024/05/05 12:13:33;;;;;;;;;;;13.80;99.90;;;;;;4992784;28;20012;-83
2024/05/05 12:16:18;;;;;;;;;;;13.90;99.90;;;;;;4998261;28;19925;-83
2024/05/05 12:19:00;;;;;;;;;;;13.90;99.90;;;;;;5000444;28;19917;-84
2024/05/05 12:21:26;;;;;;;;;;;14.20;99.90;;;;;;5004709;28;20449;-83
2024/05/05 12:23:52;;;;;;;;;;;14.10;99.90;;;;;;4994979;28;19925;-84
2024/05/05 12:26:17;;;;;;;;;;;14.10;99.90;;;;;;5007044;28;19963;-84
2024/05/05 12:28:52;;;;;;;;;;;14.10;99.90;;;;;;4988881;28;19928;-84
2024/05/05 12:31:18;;;;;;;;;;;14.30;99.90;;;;;;5009016;28;20436;-83
2024/05/05 12:33:43;;;;;;;;;;;14.40;99.90;;;;;;5010031;28;19925;-83
2024/05/05 12:36:09;;;;;;;;;;;14.50;99.90;;;;;;4990858;28;19929;-84
2024/05/05 12:38:34;;;;;;;;;;;14.40;99.90;;;;;;5016948;28;19913;-84
2024/05/05 12:41:00;;;;;;;;;;;14.70;99.90;;;;;;4991922;28;19922;-83
2024/05/05 12:43:25;;;;;;;;;;;14.80;99.90;;;;;;5001429;28;19921;-83
2024/05/05 12:46:08;;;;;;;;;;;14.90;99.90;;;;;;4998155;28;19952;-82
2024/05/05 12:48:53;;;;;;;;;;;14.80;99.90;;;;;;5004261;28;19914;-83
2024/05/05 12:51:19;;;;;;;;;;;14.70;99.90;;;;;;4996000;28;19933;-83
2024/05/05 12:53:44;;;;;;;;;;;14.70;99.90;;;;;;5009996;28;20024;-83
2024/05/05 12:56:10;;;;;;;;;;;14.80;99.90;;;;;;4990876;28;19925;-83
2024/05/05 12:58:36;;;;;;;;;;;14.80;99.90;;;;;;5005312;28;19928;-84
2024/05/05 13:01:02;;;;;;;;;;;14.70;99.90;;;;;;4988901;28;19922;-83
2024/05/05 13:03:28;;;;;;;;;;;14.60;99.90;;;;;;5003573;28;19928;-83
2024/05/05 13:05:53;;;;;;;;;;;14.80;99.90;;;;;;4997061;28;20231;-84
2024/05/05 13:08:21;;;;;;;;;;;15.20;99.90;;;;;;5005170;28;20389;-83
2024/05/05 13:10:46;;;;;;;;;;;15.50;99.90;;;;;;4994366;28;19990;-85
2024/05/05 13:13:12;;;;;;;;;;;16.20;99.90;;;;;;5006266;28;20362;-83
2024/05/05 13:15:37;;;;;;;;;;;16.20;99.90;;;;;;4992030;28;20031;-84
2024/05/05 13:18:03;;;;;;;;;;;16.20;99.90;;;;;;5009514;28;19921;-84
2024/05/05 13:20:30;;;;;;;;;;;16.00;99.90;;;;;;4995672;28;19918;-84
2024/05/05 13:22:56;;;;;;;;;;;15.80;99.90;;;;;;5007356;28;19928;-84
2024/05/05 13:25:21;;;;;;;;;;;15.70;99.90;;;;;;5007320;28;20366;-83
2024/05/05 13:27:47;;;;;;;;;;;15.60;99.90;;;;;;4996388;28;20794;-84
2024/05/05 13:30:12;;;;;;;;;;;15.60;99.90;;;;;;5001519;28;20492;-82
2024/05/05 13:32:40;;;;;;;;;;;15.40;99.90;;;;;;4997705;28;19935;-84
2024/05/05 13:35:06;;;;;;;;;;;15.10;99.90;;;;;;5000167;28;20427;-84
2024/05/05 13:37:31;;;;;;;;;;;14.90;99.90;;;;;;4993663;28;20285;-84
2024/05/05 13:39:57;;;;;;;;;;;14.80;99.90;;;;;;5008103;28;20376;-83
2024/05/05 13:42:22;;;;;;;;;;;14.70;99.90;;;;;;4991294;28;20362;-84
2024/05/05 13:44:48;;;;;;;;;;;14.70;99.90;;;;;;5005573;28;19933;-84
2024/05/05 13:47:14;;;;;;;;;;;14.80;99.90;;;;;;4993528;28;19913;-83
2024/05/05 13:49:39;;;;;;;;;;;15.00;99.90;;;;;;5002055;28;19944;-83
2024/05/05 13:52:05;;;;;;;;;;;14.90;99.90;;;;;;4994478;28;19932;-83
2024/05/05 13:54:31;;;;;;;;;;;14.90;99.90;;;;;;5001654;28;19983;-84
2024/05/05 13:56:56;;;;;;;;;;;14.80;99.90;;;;;;4992229;28;19930;-84
2024/05/05 13:59:23;;;;;;;;;;;14.80;99.90;;;;;;5006850;28;19928;-84
2024/05/05 14:01:49;;;;;;;;;;;14.90;99.90;;;;;;4991409;28;19953;-84
2024/05/05 14:04:14;;;;;;;;;;;14.90;99.90;;;;;;5003181;28;19981;-84
2024/05/05 14:06:40;;;;;;;;;;;15.10;99.90;;;;;;5003461;28;19967;-84
2024/05/05 14:09:05;;;;;;;;;;;15.30;99.90;;;;;;4989175;28;19953;-83
2024/05/05 14:11:31;;;;;;;;;;;15.10;99.90;;;;;;5004888;28;19921;-84
2024/05/05 14:13:57;;;;;;;;;;;15.10;99.90;;;;;;4993861;28;21066;-85
2024/05/05 14:16:22;;;;;;;;;;;15.00;99.90;;;;;;4999765;28;19932;-84
2024/05/05 14:18:48;;;;;;;;;;;15.70;99.90;;;;;;4999147;28;19917;-85